createdAt,value
2018-07-12T00:00:37.134Z,57.46
2018-07-12T00:02:48.394Z,56.81
2018-07-12T00:04:59.712Z,57.69
2018-07-12T00:07:10.938Z,57.00
2018-07-12T00:09:22.190Z,57.74
2018-07-12T00:11:33.436Z,57.50
2018-07-12T00:13:44.658Z,58.05
2018-07-12T00:15:56.062Z,57.09
2018-07-12T00:18:07.274Z,56.72
2018-07-12T00:20:18.510Z,57.19
2018-07-12T00:22:29.761Z,56.29
2018-07-12T00:24:41.084Z,56.08
2018-07-12T00:26:52.365Z,56.31
2018-07-12T00:29:03.583Z,56.21
2018-07-12T00:31:14.802Z,55.15
2018-07-12T00:33:26.024Z,55.10
2018-07-12T00:35:37.239Z,55.35
2018-07-12T00:37:48.520Z,56.16
2018-07-12T00:39:59.775Z,56.09
2018-07-12T00:42:10.985Z,56.65
2018-07-12T00:44:22.226Z,55.36
2018-07-12T00:46:33.483Z,55.91
2018-07-12T00:48:44.742Z,55.48
2018-07-12T00:50:55.997Z,56.30
2018-07-12T00:53:07.311Z,55.98
2018-07-12T00:55:18.557Z,56.28
2018-07-12T00:57:29.955Z,56.69
2018-07-12T00:59:41.355Z,56.65
2018-07-12T01:01:52.662Z,57.02
2018-07-12T01:04:03.950Z,56.71
2018-07-12T01:06:15.175Z,57.35
2018-07-12T01:08:26.408Z,56.21
2018-07-12T01:10:37.642Z,56.90
2018-07-12T01:12:48.966Z,55.51
2018-07-12T01:15:00.269Z,55.12
2018-07-12T01:17:11.486Z,55.59
2018-07-12T01:19:22.742Z,54.88
2018-07-12T01:21:33.979Z,56.03
2018-07-12T01:23:45.274Z,55.58
2018-07-12T01:25:56.573Z,55.89
2018-07-12T01:28:07.825Z,55.53
2018-07-12T01:30:19.037Z,55.60
2018-07-12T01:32:30.271Z,54.87
2018-07-12T01:34:41.519Z,55.60
2018-07-12T01:36:52.735Z,55.52
2018-07-12T01:39:05.071Z,55.52
2018-07-12T01:41:16.423Z,54.38
2018-07-12T01:43:27.665Z,55.27
2018-07-12T01:45:39.003Z,55.47
2018-07-12T01:47:50.353Z,54.92
2018-07-12T01:50:01.619Z,55.75
2018-07-12T01:52:12.855Z,55.11
2018-07-12T01:54:24.078Z,55.54
2018-07-12T01:56:35.414Z,55.44
2018-07-12T01:58:46.638Z,55.00
2018-07-12T02:00:57.944Z,55.45
2018-07-12T02:03:09.181Z,55.67
2018-07-12T02:05:20.439Z,55.62
2018-07-12T02:07:31.650Z,55.44
2018-07-12T02:09:42.891Z,55.60
2018-07-12T02:11:54.149Z,55.49
2018-07-12T02:14:05.369Z,55.66
2018-07-12T02:16:16.656Z,54.76
2018-07-12T02:18:27.902Z,55.70
2018-07-12T02:20:39.180Z,55.27
2018-07-12T02:22:50.434Z,55.69
2018-07-12T02:25:01.758Z,54.55
2018-07-12T02:27:13.030Z,54.48
2018-07-12T02:29:24.329Z,56.06
2018-07-12T02:31:35.639Z,56.08
2018-07-12T02:33:46.874Z,55.69
2018-07-12T02:35:58.198Z,55.52
2018-07-12T02:38:09.472Z,54.70
2018-07-12T02:40:20.700Z,56.04
2018-07-12T02:42:31.969Z,55.59
2018-07-12T02:44:44.537Z,56.39
2018-07-12T02:46:55.898Z,55.89
2018-07-12T02:49:07.193Z,55.22
2018-07-12T02:51:18.423Z,54.71
2018-07-12T02:53:29.690Z,55.21
2018-07-12T02:55:40.909Z,55.94
2018-07-12T02:57:52.150Z,55.84
2018-07-12T03:00:03.380Z,54.93
2018-07-12T03:02:14.647Z,55.12
2018-07-12T03:04:25.977Z,55.21
2018-07-12T03:06:37.257Z,56.23
2018-07-12T03:08:48.546Z,55.89
2018-07-12T03:11:00.004Z,55.90
2018-07-12T03:13:11.230Z,55.95
2018-07-12T03:15:22.458Z,55.80
2018-07-12T03:17:33.811Z,56.33
2018-07-12T03:19:45.094Z,55.40
2018-07-12T03:21:56.378Z,56.79
2018-07-12T03:24:07.607Z,55.83
2018-07-12T03:26:18.878Z,56.06
2018-07-12T03:28:30.133Z,56.38
2018-07-12T03:30:41.417Z,57.06
2018-07-12T03:32:52.727Z,56.85
2018-07-12T03:35:03.942Z,57.62
2018-07-12T03:37:15.320Z,56.83
2018-07-12T03:39:26.786Z,57.41
2018-07-12T03:41:38.011Z,57.50
2018-07-12T03:43:49.330Z,56.98
2018-07-12T03:46:00.604Z,57.88
2018-07-12T03:48:12.002Z,57.20
2018-07-12T03:50:23.357Z,57.25
2018-07-12T03:52:34.718Z,57.17
2018-07-12T03:54:45.944Z,57.85
2018-07-12T03:56:57.189Z,58.18
2018-07-12T03:59:08.426Z,58.42
2018-07-12T04:01:19.839Z,58.54
2018-07-12T04:03:31.085Z,57.62
2018-07-12T04:05:42.301Z,58.63
2018-07-12T04:07:53.570Z,58.14
2018-07-12T04:10:04.805Z,58.17
2018-07-12T04:12:16.167Z,58.47
2018-07-12T04:14:27.454Z,58.66
2018-07-12T04:16:38.687Z,58.89
2018-07-12T04:18:49.981Z,59.51
2018-07-12T04:21:01.284Z,59.12
2018-07-12T04:23:12.539Z,58.38
2018-07-12T04:25:23.836Z,58.86
2018-07-12T04:27:35.082Z,58.69
2018-07-12T04:29:46.855Z,59.55
2018-07-12T04:31:58.105Z,58.37
2018-07-12T04:34:09.365Z,58.93
2018-07-12T04:36:20.736Z,58.98
2018-07-12T04:38:31.995Z,58.84
2018-07-12T04:40:43.243Z,59.03
2018-07-12T04:42:54.507Z,59.68
2018-07-12T04:45:05.748Z,59.82
2018-07-12T04:47:17.027Z,59.66
2018-07-12T04:49:28.293Z,59.96
2018-07-12T04:51:39.512Z,59.88
2018-07-12T04:53:50.729Z,60.15
2018-07-12T04:56:02.004Z,60.49
2018-07-12T04:58:13.308Z,60.39
2018-07-12T05:00:24.610Z,60.74
2018-07-12T05:02:35.839Z,59.88
2018-07-12T05:04:47.098Z,59.88
2018-07-12T05:06:58.452Z,59.38
2018-07-12T05:09:10.581Z,59.93
2018-07-12T05:11:22.590Z,59.31
2018-07-12T05:13:33.947Z,59.19
2018-07-12T05:15:45.194Z,58.13
2018-07-12T05:17:56.410Z,58.35
2018-07-12T05:20:07.643Z,57.34
2018-07-12T05:22:18.908Z,57.18
2018-07-12T05:24:30.246Z,57.34
2018-07-12T05:26:41.525Z,56.63
2018-07-12T05:28:52.730Z,56.30
2018-07-12T05:31:04.330Z,56.75
2018-07-12T05:33:15.595Z,55.74
2018-07-12T05:35:27.919Z,56.14
2018-07-12T05:37:40.439Z,55.77
2018-07-12T05:39:52.802Z,55.65
2018-07-12T05:42:05.271Z,56.59
2018-07-12T05:44:17.698Z,56.52
2018-07-12T05:46:30.039Z,57.14
2018-07-12T05:48:42.559Z,56.07
2018-07-12T05:50:54.954Z,55.91
2018-07-12T05:53:07.438Z,56.58
2018-07-12T05:55:19.810Z,57.06
2018-07-12T05:57:32.252Z,56.63
2018-07-12T05:59:44.619Z,56.31
2018-07-12T06:02:08.533Z,56.81
2018-07-12T06:04:20.910Z,56.67
2018-07-12T06:06:33.327Z,56.68
2018-07-12T06:08:45.830Z,56.32
2018-07-12T06:10:58.339Z,57.65
2018-07-12T06:13:10.740Z,57.42
2018-07-12T06:15:23.121Z,56.43
2018-07-12T06:17:35.478Z,57.54
2018-07-12T06:19:47.954Z,58.08
2018-07-12T06:22:00.423Z,58.53
2018-07-12T06:24:12.794Z,60.97
2018-07-12T06:26:25.152Z,62.33
2018-07-12T06:28:37.649Z,64.74
2018-07-12T06:30:50.024Z,64.88
2018-07-12T06:33:02.398Z,65.57
2018-07-12T06:35:14.918Z,65.78
2018-07-12T06:37:27.310Z,67.54
2018-07-12T06:39:39.740Z,68.23
2018-07-12T06:41:52.069Z,69.02
2018-07-12T06:44:04.496Z,68.55
2018-07-12T06:46:16.902Z,69.76
2018-07-12T06:48:29.278Z,68.71
2018-07-12T06:50:41.651Z,70.00
2018-07-12T06:52:54.076Z,69.53
2018-07-12T06:55:10.767Z,69.54
2018-07-12T06:57:23.246Z,70.64
2018-07-12T06:59:35.610Z,70.14
2018-07-12T07:01:48.019Z,69.98
2018-07-12T07:04:00.355Z,71.04
2018-07-12T07:06:12.771Z,70.61
2018-07-12T07:08:25.154Z,71.52
2018-07-12T07:10:37.511Z,70.33
2018-07-12T07:12:49.925Z,70.32
2018-07-12T07:15:02.261Z,70.94
2018-07-12T07:17:14.657Z,72.10
2018-07-12T07:19:27.026Z,71.54
2018-07-12T07:21:39.452Z,71.13
2018-07-12T07:23:51.843Z,71.94
2018-07-12T07:26:04.246Z,71.46
2018-07-12T07:28:16.842Z,71.16
2018-07-12T07:30:29.230Z,70.98
2018-07-12T07:32:41.682Z,72.15
2018-07-12T07:34:54.127Z,71.63
2018-07-12T07:37:06.651Z,70.87
2018-07-12T07:39:19.058Z,72.08
2018-07-12T07:41:31.430Z,71.47
2018-07-12T07:43:44.022Z,69.97
2018-07-12T07:45:56.538Z,68.58
2018-07-12T07:48:09.139Z,68.45
2018-07-12T07:50:21.498Z,70.48
2018-07-12T07:52:33.839Z,69.17
2018-07-12T07:54:46.345Z,64.66
2018-07-12T07:56:58.727Z,64.11
2018-07-12T07:59:11.149Z,63.07
2018-07-12T08:01:23.665Z,63.14
2018-07-12T08:03:36.082Z,61.37
2018-07-12T08:05:48.647Z,59.90
2018-07-12T08:08:01.023Z,59.05
2018-07-12T08:10:13.856Z,57.52
2018-07-12T08:12:26.225Z,59.25
2018-07-12T08:14:38.723Z,59.81
2018-07-12T08:16:51.167Z,61.12
2018-07-12T08:19:03.591Z,59.48
2018-07-12T08:21:16.123Z,58.10
2018-07-12T08:23:28.598Z,59.40
2018-07-12T08:25:40.974Z,62.56
2018-07-12T08:28:04.634Z,60.31
2018-07-12T08:30:17.007Z,60.01
2018-07-12T08:32:29.414Z,59.79
2018-07-12T08:34:41.834Z,60.66
2018-07-12T08:37:01.085Z,60.94
2018-07-12T08:39:13.541Z,61.81
2018-07-12T08:41:25.879Z,62.75
2018-07-12T08:43:38.259Z,63.78
2018-07-12T08:45:52.502Z,62.65
2018-07-12T08:48:05.229Z,62.01
2018-07-12T08:50:17.618Z,60.49
2018-07-12T08:52:29.998Z,59.67
2018-07-12T08:54:42.374Z,62.07
2018-07-12T08:56:54.754Z,60.30
2018-07-12T08:59:07.219Z,60.34
2018-07-12T09:01:19.632Z,60.71
2018-07-12T09:03:32.023Z,60.51
2018-07-12T09:05:44.406Z,60.52
2018-07-12T09:07:56.776Z,59.30
2018-07-12T09:10:09.162Z,55.92
2018-07-12T09:12:21.565Z,56.67
2018-07-12T09:14:33.919Z,55.06
2018-07-12T09:16:46.289Z,54.78
2018-07-12T09:18:58.862Z,53.07
2018-07-12T09:21:11.275Z,51.82
2018-07-12T09:23:23.844Z,50.25
2018-07-12T09:25:36.372Z,50.68
2018-07-12T09:27:48.807Z,50.64
2018-07-12T09:30:01.138Z,48.61
2018-07-12T09:32:13.576Z,49.99
2018-07-12T09:34:25.974Z,48.21
2018-07-12T09:36:38.343Z,46.93
2018-07-12T09:38:51.603Z,48.48
2018-07-12T09:41:04.127Z,47.64
2018-07-12T09:43:16.568Z,48.75
2018-07-12T09:45:29.041Z,49.64
2018-07-12T09:47:41.513Z,48.06
2018-07-12T09:49:53.875Z,47.87
2018-07-12T09:52:11.981Z,49.05
2018-07-12T09:54:24.383Z,49.71
2018-07-12T09:56:48.159Z,49.91
2018-07-12T09:59:00.561Z,49.46
2018-07-12T10:01:18.522Z,50.32
2018-07-12T10:03:36.523Z,50.24
2018-07-12T10:05:54.432Z,48.65
2018-07-12T10:08:12.610Z,48.96
2018-07-12T10:10:30.418Z,48.86
2018-07-12T10:12:48.371Z,47.86
2018-07-12T10:15:06.370Z,47.32
2018-07-12T10:17:24.258Z,47.50
2018-07-12T10:19:36.617Z,47.34
2018-07-12T10:21:49.011Z,47.97
2018-07-12T10:24:01.374Z,45.89
2018-07-12T10:26:13.838Z,45.43
2018-07-12T10:28:26.214Z,46.24
2018-07-12T10:30:38.565Z,46.29
2018-07-12T10:32:51.049Z,46.70
2018-07-12T10:35:03.474Z,47.59
2018-07-12T10:37:15.958Z,46.62
2018-07-12T10:39:28.310Z,49.29
2018-07-12T10:41:40.729Z,48.16
2018-07-12T10:43:53.119Z,48.63
2018-07-12T10:46:05.679Z,47.55
2018-07-12T10:48:18.061Z,47.18
2018-07-12T10:50:30.538Z,48.01
2018-07-12T10:52:42.971Z,48.14
2018-07-12T10:54:55.307Z,45.95
2018-07-12T10:57:07.687Z,45.34
2018-07-12T10:59:20.105Z,43.45
2018-07-12T11:01:32.537Z,43.41
2018-07-12T11:03:44.920Z,45.73
2018-07-12T11:05:57.358Z,46.45
2018-07-12T11:08:09.776Z,48.60
2018-07-12T11:10:22.238Z,48.39
2018-07-12T11:12:34.599Z,47.00
2018-07-12T11:14:47.003Z,45.72
2018-07-12T11:16:59.422Z,45.65
2018-07-12T11:19:11.809Z,44.61
2018-07-12T11:21:24.274Z,44.52
2018-07-12T11:23:36.665Z,44.97
2018-07-12T11:25:49.135Z,44.11
2018-07-12T11:28:02.022Z,42.51
2018-07-12T11:30:14.448Z,43.13
2018-07-12T11:32:26.923Z,42.92
2018-07-12T11:34:39.339Z,41.01
2018-07-12T11:36:52.054Z,41.73
2018-07-12T11:39:06.578Z,42.35
2018-07-12T11:41:18.927Z,42.61
2018-07-12T11:43:31.353Z,41.77
2018-07-12T11:45:44.519Z,42.19
2018-07-12T11:47:56.983Z,45.04
2018-07-12T11:50:09.410Z,42.27
2018-07-12T11:52:21.827Z,42.98
2018-07-12T11:54:34.319Z,42.54
2018-07-12T11:56:46.770Z,42.15
2018-07-12T11:58:59.158Z,42.24
2018-07-12T12:01:12.372Z,42.71
2018-07-12T12:03:25.310Z,43.67
2018-07-12T12:05:37.741Z,45.75
2018-07-12T12:07:50.130Z,45.45
2018-07-12T12:10:02.623Z,46.78
2018-07-12T12:12:15.070Z,45.08
2018-07-12T12:14:27.455Z,46.18
2018-07-12T12:16:39.806Z,43.05
2018-07-12T12:18:52.162Z,44.01
2018-07-12T12:21:04.654Z,44.86
2018-07-12T12:23:17.051Z,45.11
2018-07-12T12:25:29.414Z,46.86
2018-07-12T12:27:41.950Z,46.57
2018-07-12T12:29:54.341Z,48.02
2018-07-12T12:32:06.767Z,45.24
2018-07-12T12:34:19.163Z,45.75
2018-07-12T12:36:31.613Z,46.30
2018-07-12T12:38:43.988Z,45.69
2018-07-12T12:40:56.450Z,47.02
2018-07-12T12:43:08.797Z,46.39
2018-07-12T12:45:21.274Z,45.85
2018-07-12T12:47:33.747Z,44.49
2018-07-12T12:49:46.266Z,43.13
2018-07-12T12:51:58.690Z,43.92
2018-07-12T12:54:11.211Z,43.35
2018-07-12T12:56:23.607Z,43.19
2018-07-12T12:58:36.003Z,42.50
2018-07-12T13:00:48.502Z,42.74
2018-07-12T13:03:00.868Z,42.46
2018-07-12T13:05:13.211Z,42.43
2018-07-12T13:07:25.614Z,43.10
2018-07-12T13:09:38.278Z,42.52
2018-07-12T13:11:50.679Z,43.36
2018-07-12T13:14:03.143Z,42.20
2018-07-12T13:16:15.755Z,42.49
2018-07-12T13:18:28.198Z,42.87
2018-07-12T13:20:40.624Z,42.44
2018-07-12T13:22:56.087Z,41.37
2018-07-12T13:25:08.553Z,41.69
2018-07-12T13:27:20.966Z,41.22
2018-07-12T13:29:34.226Z,41.02
2018-07-12T13:31:46.649Z,39.47
2018-07-12T13:33:59.069Z,38.80
2018-07-12T13:36:11.431Z,40.60
2018-07-12T13:38:23.852Z,40.04
2018-07-12T13:40:36.218Z,41.58
2018-07-12T13:42:48.670Z,40.72
2018-07-12T13:45:02.068Z,40.53
2018-07-12T13:47:14.651Z,40.38
2018-07-12T13:49:27.066Z,39.79
2018-07-12T13:51:39.442Z,40.57
2018-07-12T13:53:55.640Z,39.75
2018-07-12T13:56:08.015Z,40.19
2018-07-12T13:58:20.409Z,41.12
2018-07-12T14:00:32.997Z,42.67
2018-07-12T14:02:45.378Z,42.08
2018-07-12T14:04:57.848Z,40.78
2018-07-12T14:07:10.178Z,40.96
2018-07-12T14:09:22.529Z,41.47
2018-07-12T14:11:35.054Z,40.12
2018-07-12T14:13:47.682Z,39.64
2018-07-12T14:16:00.230Z,40.26
2018-07-12T14:18:13.542Z,40.11
2018-07-12T14:20:28.865Z,39.30
2018-07-12T14:22:42.332Z,38.86
2018-07-12T14:24:54.701Z,39.49
2018-07-12T14:27:07.178Z,39.75
2018-07-12T14:29:19.588Z,39.55
2018-07-12T14:31:32.092Z,40.26
2018-07-12T14:33:44.441Z,40.35
2018-07-12T14:35:56.866Z,40.72
2018-07-12T14:38:09.251Z,39.65
2018-07-12T14:40:21.625Z,40.76
2018-07-12T14:42:34.966Z,40.50
2018-07-12T14:44:48.272Z,40.45
2018-07-12T14:47:00.932Z,41.66
2018-07-12T14:49:13.377Z,41.92
2018-07-12T14:51:25.735Z,41.44
2018-07-12T14:53:38.199Z,40.86
2018-07-12T14:55:50.575Z,40.41
2018-07-12T14:58:03.002Z,41.05
2018-07-12T15:00:15.533Z,40.03
2018-07-12T15:02:27.988Z,40.44
2018-07-12T15:04:40.394Z,40.35
2018-07-12T15:06:52.775Z,40.61
2018-07-12T15:09:07.284Z,40.67
2018-07-12T15:11:20.432Z,40.77
2018-07-12T15:13:32.930Z,40.97
2018-07-12T15:15:45.509Z,40.18
2018-07-12T15:17:58.129Z,39.30
2018-07-12T15:20:10.623Z,38.68
2018-07-12T15:22:22.999Z,40.40
2018-07-12T15:24:35.430Z,39.53
2018-07-12T15:26:47.891Z,38.18
2018-07-12T15:29:01.096Z,37.49
2018-07-12T15:31:13.538Z,38.32
2018-07-12T15:33:25.883Z,38.42
2018-07-12T15:35:38.340Z,38.02
2018-07-12T15:37:50.671Z,38.39
2018-07-12T15:40:03.196Z,36.90
2018-07-12T15:42:15.515Z,38.60
2018-07-12T15:44:27.888Z,38.74
2018-07-12T15:46:40.463Z,37.47
2018-07-12T15:48:52.834Z,38.37
2018-07-12T15:51:05.415Z,38.55
2018-07-12T15:53:17.756Z,38.57
2018-07-12T15:55:30.085Z,36.97
2018-07-12T15:57:42.557Z,37.42
2018-07-12T15:59:54.974Z,38.19
2018-07-12T16:02:07.559Z,37.59
2018-07-12T16:04:19.962Z,37.17
2018-07-12T16:06:32.377Z,38.07
2018-07-12T16:08:44.754Z,38.09
2018-07-12T16:10:57.210Z,37.55
2018-07-12T16:13:09.663Z,37.44
2018-07-12T16:15:22.110Z,37.41
2018-07-12T16:17:34.580Z,38.42
2018-07-12T16:19:47.003Z,37.43
2018-07-12T16:21:59.397Z,37.81
2018-07-12T16:24:11.882Z,38.09
2018-07-12T16:26:24.332Z,36.59
2018-07-12T16:28:36.727Z,37.84
2018-07-12T16:30:49.137Z,36.16
2018-07-12T16:33:01.543Z,35.99
2018-07-12T16:35:13.943Z,35.35
2018-07-12T16:37:26.404Z,36.08
2018-07-12T16:39:39.003Z,34.75
2018-07-12T16:41:51.492Z,34.58
2018-07-12T16:44:03.987Z,35.24
2018-07-12T16:46:16.481Z,36.45
2018-07-12T16:48:28.906Z,36.58
2018-07-12T16:50:41.308Z,35.73
2018-07-12T16:52:53.684Z,35.15
2018-07-12T16:55:06.147Z,35.12
2018-07-12T16:57:18.592Z,35.10
2018-07-12T16:59:30.958Z,35.19
2018-07-12T17:01:43.419Z,35.60
2018-07-12T17:03:55.837Z,36.28
2018-07-12T17:06:08.249Z,35.16
2018-07-12T17:08:20.618Z,35.66
2018-07-12T17:10:33.031Z,35.78
2018-07-12T17:12:45.514Z,37.13
2018-07-12T17:14:57.934Z,35.90
2018-07-12T17:17:10.371Z,36.18
2018-07-12T17:19:22.747Z,36.67
2018-07-12T17:21:35.147Z,36.67
2018-07-12T17:23:47.623Z,37.01
2018-07-12T17:25:59.966Z,37.69
2018-07-12T17:28:12.347Z,37.04
2018-07-12T17:30:24.756Z,37.94
2018-07-12T17:32:37.153Z,37.54
2018-07-12T17:34:49.525Z,37.17
2018-07-12T17:37:01.945Z,38.69
2018-07-12T17:39:14.318Z,38.77
2018-07-12T17:41:26.820Z,38.20
2018-07-12T17:43:39.263Z,39.31
2018-07-12T17:45:51.635Z,38.86
2018-07-12T17:48:04.235Z,39.29
2018-07-12T17:50:16.751Z,39.38
2018-07-12T17:52:29.141Z,38.28
2018-07-12T17:54:41.541Z,39.41
2018-07-12T17:56:53.903Z,38.85
2018-07-12T17:59:06.424Z,39.88
2018-07-12T18:01:52.775Z,40.30
2018-07-12T18:04:05.413Z,39.58
2018-07-12T18:06:17.878Z,38.64
2018-07-12T18:08:30.531Z,39.17
2018-07-12T18:10:42.975Z,38.74
2018-07-12T18:12:55.385Z,39.85
2018-07-12T18:15:07.783Z,39.96
2018-07-12T18:17:20.208Z,40.49
2018-07-12T18:19:32.639Z,39.39
2018-07-12T18:21:45.050Z,40.77
2018-07-12T18:23:57.422Z,40.20
2018-07-12T18:26:09.886Z,40.97
2018-07-12T18:28:22.283Z,41.07
2018-07-12T18:30:34.681Z,41.52
2018-07-12T18:32:47.075Z,41.57
2018-07-12T18:34:59.450Z,41.26
2018-07-12T18:37:11.925Z,41.17
2018-07-12T18:39:24.265Z,42.26
2018-07-12T18:41:37.040Z,42.42
2018-07-12T18:43:49.635Z,41.82
2018-07-12T18:46:02.117Z,42.45
2018-07-12T18:48:14.520Z,42.94
2018-07-12T18:50:26.891Z,42.24
2018-07-12T18:52:39.374Z,42.70
2018-07-12T18:54:51.878Z,43.37
2018-07-12T18:57:05.534Z,43.27
2018-07-12T18:59:17.886Z,43.30
2018-07-12T19:01:30.307Z,43.07
2018-07-12T19:03:42.962Z,43.25
2018-07-12T19:05:55.328Z,44.00
2018-07-12T19:08:07.859Z,44.13
2018-07-12T19:10:20.203Z,44.78
2018-07-12T19:12:32.623Z,44.01
2018-07-12T19:14:45.414Z,45.16
2018-07-12T19:16:57.770Z,45.30
2018-07-12T19:19:11.171Z,46.63
2018-07-12T19:21:23.618Z,46.18
2018-07-12T19:23:36.057Z,46.36
2018-07-12T19:25:48.587Z,47.13
2018-07-12T19:28:01.032Z,47.80
2018-07-12T19:30:13.613Z,47.86
2018-07-12T19:32:25.967Z,47.99
2018-07-12T19:34:38.473Z,48.49
2018-07-12T19:36:50.861Z,49.27
2018-07-12T19:39:04.568Z,49.07
2018-07-12T19:41:16.978Z,50.15
2018-07-12T19:43:29.473Z,49.16
2018-07-12T19:45:41.890Z,49.39
2018-07-12T19:47:54.281Z,50.50
2018-07-12T19:50:06.661Z,50.71
2018-07-12T19:52:19.062Z,51.32
2018-07-12T19:54:31.478Z,51.18
2018-07-12T19:56:43.922Z,51.06
2018-07-12T19:58:56.347Z,51.28
2018-07-12T20:01:08.788Z,52.67
2018-07-12T20:03:21.264Z,52.23
2018-07-12T20:05:33.647Z,53.57
2018-07-12T20:07:46.177Z,53.21
2018-07-12T20:09:58.543Z,54.14
2018-07-12T20:12:10.929Z,53.34
2018-07-12T20:14:23.488Z,53.75
2018-07-12T20:16:35.972Z,53.86
2018-07-12T20:18:48.405Z,54.15
2018-07-12T20:21:00.838Z,53.67
2018-07-12T20:23:13.370Z,53.74
2018-07-12T20:25:25.831Z,54.33
2018-07-12T20:27:39.202Z,54.86
2018-07-12T20:29:51.628Z,55.69
2018-07-12T20:32:04.180Z,55.28
2018-07-12T20:34:16.554Z,54.94
2018-07-12T20:36:28.927Z,55.37
2018-07-12T20:38:41.607Z,55.15
2018-07-12T20:40:54.045Z,56.15
2018-07-12T20:43:06.542Z,56.71
2018-07-12T20:45:18.955Z,56.26
2018-07-12T20:47:31.458Z,57.14
2018-07-12T20:49:43.959Z,56.31
2018-07-12T20:51:56.357Z,57.79
2018-07-12T20:54:08.790Z,57.91
2018-07-12T20:56:21.162Z,57.11
2018-07-12T20:58:33.555Z,58.05
2018-07-12T21:00:46.006Z,57.91
2018-07-12T21:02:58.436Z,58.15
2018-07-12T21:05:10.968Z,58.64
2018-07-12T21:07:23.473Z,58.33
2018-07-12T21:09:35.826Z,59.25
2018-07-12T21:11:48.223Z,59.40
2018-07-12T21:14:00.674Z,59.79
2018-07-12T21:16:13.065Z,60.11
2018-07-12T21:18:25.548Z,60.16
2018-07-12T21:20:38.074Z,60.40
2018-07-12T21:22:50.470Z,60.28
2018-07-12T21:25:02.979Z,61.06
2018-07-12T21:27:15.358Z,61.67
2018-07-12T21:29:27.786Z,61.48
2018-07-12T21:31:40.185Z,61.64
2018-07-12T21:33:52.534Z,60.46
2018-07-12T21:36:05.244Z,61.33
2018-07-12T21:38:17.864Z,61.79
2018-07-12T21:40:30.307Z,61.81
2018-07-12T21:42:42.678Z,61.75
2018-07-12T21:44:55.096Z,61.05
2018-07-12T21:47:07.510Z,61.14
2018-07-12T21:49:19.874Z,61.64
2018-07-12T21:51:32.375Z,61.73
2018-07-12T21:53:44.766Z,60.82
2018-07-12T21:55:57.360Z,61.02
2018-07-12T21:58:09.754Z,61.62
2018-07-12T22:00:22.233Z,61.98
2018-07-12T22:02:34.671Z,62.27
2018-07-12T22:04:47.014Z,62.42
2018-07-12T22:08:09.514Z,61.60
2018-07-12T22:10:21.933Z,61.75
2018-07-12T22:12:34.425Z,61.97
2018-07-12T22:14:46.829Z,62.03
2018-07-12T22:16:59.399Z,62.15
2018-07-12T22:19:11.747Z,62.91
2018-07-12T22:21:24.371Z,62.86
2018-07-12T22:23:36.699Z,62.85
2018-07-12T22:25:49.119Z,62.63
2018-07-12T22:28:01.598Z,62.50
2018-07-12T22:30:14.013Z,63.29
2018-07-12T22:32:26.374Z,62.66
2018-07-12T22:34:38.851Z,63.46
2018-07-12T22:36:51.337Z,63.88
2018-07-12T22:39:04.417Z,63.60
2018-07-12T22:41:16.791Z,63.01
2018-07-12T22:43:29.186Z,64.42
2018-07-12T22:45:41.582Z,63.55
2018-07-12T22:47:54.192Z,64.01
2018-07-12T22:50:06.638Z,64.07
2018-07-12T22:52:20.693Z,63.62
2018-07-12T22:54:33.607Z,64.63
2018-07-12T22:56:45.926Z,64.44
2018-07-12T22:58:58.298Z,64.37
2018-07-12T23:01:10.663Z,63.60
2018-07-12T23:03:23.038Z,64.28
2018-07-12T23:05:35.499Z,64.18
2018-07-12T23:07:47.843Z,63.67
2018-07-12T23:10:00.406Z,63.63
2018-07-12T23:12:12.793Z,63.75
2018-07-12T23:14:25.183Z,65.18
2018-07-12T23:16:37.568Z,64.37
2018-07-12T23:18:49.941Z,65.15
2018-07-12T23:21:02.325Z,64.67
2018-07-12T23:23:14.672Z,65.21
2018-07-12T23:25:27.240Z,65.45
2018-07-12T23:27:39.620Z,65.37
2018-07-12T23:29:52.375Z,65.71
2018-07-12T23:32:04.792Z,65.37
2018-07-12T23:34:17.162Z,65.87
2018-07-12T23:36:29.500Z,66.14
2018-07-12T23:38:41.902Z,65.91
2018-07-12T23:40:54.274Z,65.62
2018-07-12T23:43:06.709Z,65.67
2018-07-12T23:45:19.052Z,65.74
2018-07-12T23:47:31.431Z,66.78
2018-07-12T23:49:43.807Z,66.21
2018-07-12T23:51:56.239Z,66.96
2018-07-12T23:54:08.618Z,67.20
2018-07-12T23:56:20.962Z,67.63
2018-07-12T23:58:33.371Z,67.80
